Aeroporto :
LOGIN :

Iscrizione | Disclaimer

   EN    FR    IT 

 










Sommario :    VFR   VFR Marginale   IFR   IFR Intensivo   IFR Molto Intensivo
Visibilità : 
Base nubi : 
>= 8 km
>= 3000ft
5 / 8 km
1000 / 3000 ft
1500m / 5 km
500 / 1000 ft
800 / 1500m
200 / 500 ft
< 800m
< 200 ft
Simboli :   Temporali  Nebbia  Neve Forte  Precipitazioni Forti  Vento > 20 kt
SIGMETs :   Varie  Temporali  Ghiacco  Turbolenza  Onda orograficha  Ceneri Vulcaniche






- Altitudine del aeroporto : 80 ft
- Codice IATA : LPL


EGGP - Liverpool John Lennon

ULTIMO METAR :
  • 210150Z AUTO 15008KT 9999 SCT015/// SCT035/// BKN041/// 14/13 Q0995

METARs OBSOLETI :
  • 210120Z AUTO 15009KT 9999 SCT014/// SCT020/// BKN026/// 14/13 Q0995 RERA
  • 210050Z AUTO 14006KT 110V190 9999 RA FEW008/// SCT012/// BKN018/// 14/13 Q0995 REDZ
  • 210020Z AUTO 14008KT 110V180 6000 -RA FEW009/// BKN014/// BKN019/// 14/13 Q0995
  • 202350Z 14008KT 110V170 9999 BKN025 14/12 Q0996
  • 202320Z 14009KT 120V190 9999 SCT034 BKN039 14/12 Q0996

TAF AMD TAF EGGP
Valido dal 21 a 00 ore il 22 a 00 ore UTC


210038Z 2100/2124 16010KT 9999 SCT035
PROB40
TEMPO 2100/2103 4000 DZ
PROB30
TEMPO 2100/2112 BKN008
PROB40
TEMPO 2103/2117 7000 RA
BECMG 2108/2111 23005KT
PROB30
TEMPO 2113/2116 BKN014
BECMG 2117/2120 29012KT
PROB30
TEMPO 2120/2124 BKN014
ATIS : +44 151 907 2000 (option 5 or ext 5150)
Met : +44 871 750 5150



MetMap, La meteo Aeronautica in un colpo d'occhio ! - Copyright ORBIFLY Dicembre 2007 - Disclaimer

ORBIFLY MET'MAP TEAM :

Programmazione e sviluppo : Alexandra Zaïnal
Concezione : Baudouin d'Aumeries
Aiuto per la programmazione : Marc-Olivier Méhu
Supporto tecnico e logistico : Manuel Goepfert
Aiuto per la traduzione : Arnaldo La Scala

Contatto : metmap@orbifly.com




FONTI E CREDITI :

   NOAA